Time;durP1;ratioP1;P1;durP2;ratioP2;P2;SDS_P1;SDS_P2;PMS_P1;PMS_P2;Temp;Humidity;BMP_temperature;BMP_pressure;BME280_temperature;BME280_humidity;BME280_pressure;Samples;Min_cycle;Max_cycle;Signal;HPM_P1;HPM_P2
2023/07/11 00:00:14;;;;;;;2.00;1.70;;;19.40;98.20;;;;;;4915650;29;20083;-66
2023/07/11 00:02:44;;;;;;;1.92;1.70;;;19.40;98.10;;;;;;4918707;29;20432;-66
2023/07/11 00:05:12;;;;;;;2.50;1.85;;;19.30;98.30;;;;;;4926266;29;20722;-66
2023/07/11 00:07:38;;;;;;;2.30;1.70;;;19.30;98.30;;;;;;4925696;29;20036;-66
2023/07/11 00:10:04;;;;;;;2.53;1.77;;;19.30;98.00;;;;;;4926313;29;20829;-66
2023/07/11 00:12:30;;;;;;;2.95;2.08;;;19.30;98.00;;;;;;4922942;29;20039;-66
2023/07/11 00:14:57;;;;;;;3.45;1.73;;;19.20;98.10;;;;;;4922974;29;20564;-66
2023/07/11 00:17:23;;;;;;;5.65;2.10;;;19.20;98.20;;;;;;4920935;29;20036;-66
2023/07/11 00:19:54;;;;;;;4.10;2.33;;;19.10;98.30;;;;;;4923548;29;20106;-66
2023/07/11 00:22:22;;;;;;;2.15;1.85;;;19.00;98.50;;;;;;4927656;29;20039;-66
2023/07/11 00:24:49;;;;;;;4.13;1.77;;;19.00;98.70;;;;;;4925327;29;20040;-66
2023/07/11 00:27:17;;;;;;;4.53;2.10;;;19.00;98.80;;;;;;4925465;29;20035;-66
2023/07/11 00:29:43;;;;;;;2.38;1.83;;;19.00;98.80;;;;;;4922416;29;20043;-66
2023/07/11 00:32:09;;;;;;;3.00;1.80;;;19.00;98.90;;;;;;4923600;29;20552;-66
2023/07/11 00:34:37;;;;;;;4.10;2.05;;;19.00;99.10;;;;;;4918984;29;20032;-66
2023/07/11 00:37:03;;;;;;;3.38;2.08;;;19.10;99.00;;;;;;4921121;29;20039;-66
2023/07/11 00:39:31;;;;;;;2.13;1.77;;;19.20;98.70;;;;;;4911658;29;20123;-66
2023/07/11 00:41:57;;;;;;;3.47;1.90;;;19.20;98.70;;;;;;4908434;29;20143;-66
2023/07/11 00:44:23;;;;;;;3.38;2.10;;;19.20;98.50;;;;;;4921893;29;20444;-66
2023/07/11 00:46:50;;;;;;;2.47;1.70;;;19.20;98.20;;;;;;4922557;29;20083;-66
2023/07/11 00:49:18;;;;;;;4.65;2.03;;;19.10;98.00;;;;;;4923550;29;20122;-66
2023/07/11 00:51:58;;;;;;;2.15;1.67;;;19.00;98.20;;;;;;4923107;29;20036;-65
2023/07/11 00:54:28;;;;;;;2.33;1.85;;;18.90;98.60;;;;;;4918648;29;20051;-66
2023/07/11 00:56:56;;;;;;;2.38;1.75;;;18.90;98.90;;;;;;4916545;29;20039;-65
2023/07/11 00:59:25;;;;;;;2.00;1.77;;;18.90;99.10;;;;;;4911081;29;20099;-66
2023/07/11 01:02:08;;;;;;;8.55;2.00;;;18.90;99.30;;;;;;4923757;29;20044;-66
2023/07/11 01:04:35;;;;;;;2.85;1.70;;;18.90;99.20;;;;;;4922056;29;20087;-66
2023/07/11 01:07:02;;;;;;;3.33;2.13;;;18.90;99.00;;;;;;4922682;29;20091;-66
2023/07/11 01:09:28;;;;;;;4.03;2.00;;;18.90;99.10;;;;;;4904094;29;20043;-65
2023/07/11 01:12:03;;;;;;;2.85;1.85;;;18.80;99.30;;;;;;4901610;29;20036;-66
2023/07/11 01:14:29;;;;;;;1.92;1.70;;;18.80;99.90;;;;;;4927449;29;20452;-66
2023/07/11 01:16:55;;;;;;;3.38;2.05;;;18.70;99.90;;;;;;4901839;29;20127;-66
2023/07/11 01:19:23;;;;;;;2.47;1.95;;;18.70;99.90;;;;;;4925147;29;20048;-66
2023/07/11 01:21:49;;;;;;;2.30;1.77;;;18.70;99.90;;;;;;4922096;29;20040;-65
2023/07/11 01:24:15;;;;;;;3.00;1.92;;;18.90;99.90;;;;;;4903863;29;20081;-66
2023/07/11 01:26:41;;;;;;;3.55;2.00;;;19.00;99.90;;;;;;4918749;29;20078;-65
2023/07/11 01:29:07;;;;;;;2.33;1.85;;;19.10;99.90;;;;;;4903179;29;20508;-65
2023/07/11 01:31:35;;;;;;;2.33;1.85;;;19.10;99.90;;;;;;4923809;29;20063;-65
2023/07/11 01:34:03;;;;;;;2.15;1.95;;;19.00;99.90;;;;;;4925905;29;20036;-65
2023/07/11 01:36:30;;;;;;;3.33;2.00;;;18.90;99.90;;;;;;4902309;29;20032;-65
2023/07/11 01:38:57;;;;;;;3.75;2.35;;;18.80;99.90;;;;;;4901521;29;20493;-65
2023/07/11 01:41:24;;;;;;;3.00;2.28;;;18.80;99.90;;;;;;4923027;29;20031;-65
2023/07/11 01:43:50;;;;;;;4.50;2.40;;;18.80;99.90;;;;;;4907711;29;20024;-65
2023/07/11 01:46:16;;;;;;;2.72;2.00;;;18.80;99.90;;;;;;4911157;29;20046;-66
2023/07/11 01:48:42;;;;;;;2.45;2.00;;;18.80;99.90;;;;;;4923859;29;20440;-65
2023/07/11 01:51:07;;;;;;;2.80;2.20;;;18.80;99.90;;;;;;4927209;29;20039;-66
2023/07/11 01:53:33;;;;;;;3.88;2.00;;;18.80;99.90;;;;;;4901517;29;20032;-65
2023/07/11 01:56:02;;;;;;;4.85;2.50;;;18.70;99.90;;;;;;4901575;29;20156;-65
2023/07/11 01:58:29;;;;;;;2.40;2.10;;;18.70;99.90;;;;;;4922084;29;20039;-65
2023/07/11 02:00:56;;;;;;;3.00;2.20;;;18.70;99.90;;;;;;4903407;29;20024;-65
2023/07/11 02:03:23;;;;;;;2.80;1.80;;;18.70;99.90;;;;;;4920329;29;20047;-66
2023/07/11 02:05:49;;;;;;;4.32;2.22;;;18.70;99.90;;;;;;4923617;29;20465;-65
2023/07/11 02:08:17;;;;;;;5.80;2.40;;;18.60;99.90;;;;;;4926638;29;20035;-65
2023/07/11 02:10:42;;;;;;;3.45;2.00;;;18.60;99.90;;;;;;4924398;29;20044;-66
2023/07/11 02:13:10;;;;;;;3.03;2.08;;;18.40;99.90;;;;;;4923946;29;20035;-65
2023/07/11 02:15:40;;;;;;;2.42;2.20;;;18.30;99.90;;;;;;4920648;29;20090;-66
2023/07/11 02:18:06;;;;;;;2.80;2.38;;;18.30;99.90;;;;;;4921917;29;20031;-65
2023/07/11 02:20:32;;;;;;;3.42;2.38;;;18.30;99.90;;;;;;4918338;29;20062;-66
2023/07/11 02:22:59;;;;;;;3.10;2.30;;;18.20;99.90;;;;;;4918496;29;20036;-66
2023/07/11 02:25:26;;;;;;;2.75;2.20;;;18.20;99.90;;;;;;4925923;29;20039;-65
2023/07/11 02:27:52;;;;;;;4.78;2.25;;;18.10;99.90;;;;;;4923917;29;20040;-65
2023/07/11 02:30:17;;;;;;;3.08;2.28;;;18.00;99.90;;;;;;4924129;29;20123;-66
2023/07/11 02:32:43;;;;;;;4.38;2.53;;;18.00;99.90;;;;;;4923754;29;20043;-66
2023/07/11 02:35:09;;;;;;;2.58;2.05;;;17.90;99.90;;;;;;4921805;29;20032;-65
2023/07/11 02:37:35;;;;;;;2.83;2.20;;;17.90;99.90;;;;;;4918403;29;20417;-66
2023/07/11 02:40:00;;;;;;;4.45;2.40;;;17.90;99.90;;;;;;4919833;29;20027;-65
2023/07/11 02:42:26;;;;;;;2.45;2.15;;;17.80;99.90;;;;;;4922460;29;20516;-66
2023/07/11 02:44:52;;;;;;;3.90;2.53;;;17.80;99.90;;;;;;4924095;29;20047;-66
2023/07/11 02:47:18;;;;;;;3.53;2.15;;;17.90;99.90;;;;;;4924492;29;20497;-65
2023/07/11 02:49:43;;;;;;;2.70;2.20;;;17.90;99.90;;;;;;4921271;29;20737;-66
2023/07/11 02:52:10;;;;;;;3.88;2.03;;;17.90;99.90;;;;;;4921623;29;20027;-65
2023/07/11 02:54:37;;;;;;;3.28;2.30;;;17.90;99.90;;;;;;4918152;29;20040;-66
2023/07/11 02:57:08;;;;;;;2.35;2.15;;;17.90;99.90;;;;;;4919015;29;20068;-66
2023/07/11 02:59:33;;;;;;;3.40;2.20;;;17.90;99.90;;;;;;4918605;29;20035;-65
2023/07/11 03:01:59;;;;;;;5.30;2.50;;;18.00;99.90;;;;;;4906456;29;20038;-66
2023/07/11 03:04:26;;;;;;;3.10;2.15;;;18.10;99.90;;;;;;4923961;29;20035;-65
2023/07/11 03:06:59;;;;;;;5.35;2.60;;;18.10;99.90;;;;;;4919196;29;20043;-66
2023/07/11 03:09:26;;;;;;;3.03;2.10;;;18.10;99.90;;;;;;4920362;29;20493;-65
2023/07/11 03:11:53;;;;;;;2.38;1.77;;;18.10;99.90;;;;;;4919084;29;20040;-66
2023/07/11 03:14:19;;;;;;;2.38;2.13;;;18.30;99.90;;;;;;4918458;29;20039;-66
2023/07/11 03:16:50;;;;;;;2.67;1.80;;;18.50;99.90;;;;;;4916387;29;20043;-66
2023/07/11 03:19:15;;;;;;;2.83;1.98;;;18.70;99.90;;;;;;4925704;29;20039;-66
2023/07/11 03:21:41;;;;;;;2.17;1.70;;;18.80;99.90;;;;;;4922532;29;20067;-66
2023/07/11 03:24:07;;;;;;;3.47;2.30;;;18.80;99.90;;;;;;4922907;29;20055;-66
2023/07/11 03:26:33;;;;;;;2.47;2.22;;;18.80;99.90;;;;;;4920104;29;20110;-66
2023/07/11 03:28:59;;;;;;;2.53;1.95;;;18.70;99.90;;;;;;4920452;29;20127;-66
2023/07/11 03:31:25;;;;;;;2.50;2.28;;;18.60;99.90;;;;;;4902405;29;20134;-66
2023/07/11 03:33:50;;;;;;;2.70;2.30;;;18.60;99.90;;;;;;4917832;29;20036;-66
2023/07/11 03:36:16;;;;;;;2.58;2.20;;;18.60;99.90;;;;;;4925494;29;20057;-66
2023/07/11 03:38:42;;;;;;;2.45;1.85;;;18.60;99.90;;;;;;4925225;29;20546;-66
2023/07/11 03:41:07;;;;;;;4.30;2.20;;;18.60;99.90;;;;;;4927227;29;20485;-66
2023/07/11 03:43:33;;;;;;;4.18;2.03;;;18.60;99.90;;;;;;4926074;29;20568;-66
2023/07/11 03:45:59;;;;;;;3.97;2.03;;;18.50;99.90;;;;;;4924693;29;20072;-66
2023/07/11 03:48:25;;;;;;;2.33;2.03;;;18.50;99.90;;;;;;4923160;29;20127;-65
2023/07/11 03:50:50;;;;;;;2.72;2.00;;;18.40;99.90;;;;;;4923483;29;20043;-66
2023/07/11 03:53:16;;;;;;;2.92;2.33;;;18.40;99.90;;;;;;4926341;29;20111;-66
2023/07/11 03:55:43;;;;;;;2.53;1.95;;;18.40;99.90;;;;;;4927775;29;20665;-66
2023/07/11 03:58:09;;;;;;;4.35;2.20;;;18.30;99.90;;;;;;4928165;29;20024;-66
2023/07/11 04:00:34;;;;;;;2.60;1.80;;;18.30;99.90;;;;;;4925464;29;20316;-66
2023/07/11 04:03:00;;;;;;;2.63;2.20;;;18.30;99.90;;;;;;4924978;29;20031;-65
2023/07/11 04:05:26;;;;;;;4.00;2.45;;;18.30;99.90;;;;;;4924727;29;20027;-66
2023/07/11 04:07:52;;;;;;;2.47;1.83;;;18.30;99.90;;;;;;4923358;29;20035;-65
2023/07/11 04:10:18;;;;;;;2.88;1.90;;;18.20;99.90;;;;;;4922663;29;20400;-65
2023/07/11 04:12:44;;;;;;;3.38;2.38;;;18.20;99.90;;;;;;4928224;29;20675;-65
2023/07/11 04:15:10;;;;;;;3.42;2.03;;;18.10;99.90;;;;;;4927563;29;20352;-65
2023/07/11 04:17:36;;;;;;;4.00;2.45;;;18.10;99.90;;;;;;4925234;29;20058;-65
2023/07/11 04:20:02;;;;;;;2.45;2.25;;;18.10;99.90;;;;;;4925785;29;20481;-65
2023/07/11 04:22:28;;;;;;;3.33;2.50;;;18.20;99.90;;;;;;4922924;29;20040;-65
2023/07/11 04:24:54;;;;;;;3.63;2.20;;;18.20;99.90;;;;;;4926056;29;20807;-65
2023/07/11 04:27:20;;;;;;;2.42;2.10;;;18.30;99.90;;;;;;4926583;29;20043;-65
2023/07/11 04:29:46;;;;;;;2.58;1.95;;;18.30;99.90;;;;;;4928679;29;20036;-65
2023/07/11 04:32:11;;;;;;;2.45;2.22;;;18.30;99.90;;;;;;4928363;29;20103;-65
2023/07/11 04:34:37;;;;;;;3.65;2.35;;;18.30;99.90;;;;;;4925201;29;20035;-66
2023/07/11 04:37:03;;;;;;;2.30;1.88;;;18.20;99.90;;;;;;4925862;29;20046;-65
2023/07/11 04:39:29;;;;;;;2.88;2.45;;;18.20;99.90;;;;;;4923451;29;20118;-65
2023/07/11 04:41:55;;;;;;;4.90;3.40;;;18.30;99.90;;;;;;4922459;29;20036;-65
2023/07/11 04:44:20;;;;;;;3.13;2.75;;;18.20;99.90;;;;;;4923725;29;20055;-65
2023/07/11 04:46:46;;;;;;;4.20;3.00;;;18.20;99.90;;;;;;4926979;29;20031;-65
2023/07/11 04:49:12;;;;;;;3.40;3.08;;;18.30;99.90;;;;;;4928207;29;20635;-65
2023/07/11 04:51:38;;;;;;;3.22;2.80;;;18.30;99.90;;;;;;4924724;29;20487;-65
2023/07/11 04:54:03;;;;;;;4.55;3.10;;;18.30;99.90;;;;;;4925596;29;20476;-65
2023/07/11 04:56:29;;;;;;;4.15;2.80;;;18.40;99.90;;;;;;4923087;29;20370;-65
2023/07/11 04:58:55;;;;;;;4.38;2.92;;;18.40;99.90;;;;;;4922648;29;20067;-65
2023/07/11 05:01:21;;;;;;;4.43;2.90;;;18.50;99.90;;;;;;4921205;29;20032;-65
2023/07/11 05:03:49;;;;;;;3.70;3.30;;;18.50;99.90;;;;;;4923425;29;20134;-65
2023/07/11 05:06:15;;;;;;;4.07;3.10;;;18.60;99.90;;;;;;4928307;29;20492;-66
2023/07/11 05:08:41;;;;;;;4.13;3.20;;;18.60;99.90;;;;;;4925785;29;20032;-65
2023/07/11 05:11:15;;;;;;;3.60;2.83;;;18.70;99.90;;;;;;4925401;29;20492;-65
2023/07/11 05:13:42;;;;;;;4.57;2.90;;;18.80;99.90;;;;;;4922449;29;20528;-65
2023/07/11 05:16:11;;;;;;;4.28;3.20;;;18.80;99.90;;;;;;4923511;29;20051;-65
2023/07/11 05:18:40;;;;;;;5.10;3.45;;;18.90;99.90;;;;;;4901935;29;20040;-65
2023/07/11 05:21:12;;;;;;;5.30;3.65;;;18.90;99.90;;;;;;4921545;29;20024;-65
2023/07/11 05:23:38;;;;;;;5.13;3.42;;;19.00;99.90;;;;;;4923777;29;20036;-65
2023/07/11 05:26:05;;;;;;;4.05;3.30;;;19.20;99.90;;;;;;4926454;29;22037;-65
2023/07/11 05:28:31;;;;;;;3.28;2.80;;;19.40;99.90;;;;;;4923495;29;20063;-65
2023/07/11 05:31:01;;;;;;;4.57;3.20;;;19.90;99.90;;;;;;4924660;29;20055;-65
2023/07/11 05:33:28;;;;;;;4.43;3.10;;;20.30;99.90;;;;;;4921103;29;20070;-66
2023/07/11 05:38:54;;;;;;;4.35;2.90;;;20.90;99.90;;;;;;4923439;29;20032;-66
2023/07/11 05:41:20;;;;;;;4.07;3.10;;;20.90;99.90;;;;;;4927081;29;20091;-66
2023/07/11 05:43:46;;;;;;;4.07;2.83;;;21.00;99.90;;;;;;4926267;29;20020;-65
2023/07/11 05:46:12;;;;;;;3.88;2.20;;;21.00;99.90;;;;;;4925178;29;20043;-65
2023/07/11 05:48:38;;;;;;;3.78;3.00;;;21.20;99.90;;;;;;4921262;29;20066;-66
2023/07/11 05:51:14;;;;;;;4.22;3.40;;;21.30;99.90;;;;;;4923597;29;20111;-66
2023/07/11 05:53:40;;;;;;;4.70;2.60;;;21.30;99.90;;;;;;4921446;29;20769;-66
2023/07/11 05:56:06;;;;;;;4.40;2.85;;;21.40;99.90;;;;;;4921135;29;20188;-66
2023/07/11 05:58:34;;;;;;;4.60;3.25;;;21.50;99.90;;;;;;4925165;29;20111;-65
2023/07/11 06:01:00;;;;;;;4.07;3.20;;;21.70;99.90;;;;;;4925002;29;20059;-66
2023/07/11 06:03:29;;;;;;;3.55;3.00;;;21.80;99.90;;;;;;4922621;29;20036;-66
2023/07/11 06:06:00;;;;;;;5.53;3.20;;;22.00;99.90;;;;;;4921823;29;20131;-66
2023/07/11 06:08:26;;;;;;;3.10;2.47;;;22.20;99.90;;;;;;4920639;29;20046;-66
2023/07/11 06:10:56;;;;;;;3.53;2.90;;;22.20;99.90;;;;;;4919333;29;20036;-66
2023/07/11 06:13:22;;;;;;;6.97;3.20;;;22.30;99.90;;;;;;4917672;29;20047;-66
2023/07/11 06:15:48;;;;;;;3.90;2.58;;;22.40;99.90;;;;;;4924415;29;20046;-65
2023/07/11 06:18:13;;;;;;;6.10;3.05;;;22.50;99.10;;;;;;4924996;29;20167;-66
2023/07/11 06:20:39;;;;;;;3.22;2.78;;;22.60;99.20;;;;;;4923577;29;20066;-66
2023/07/11 06:23:05;;;;;;;7.35;2.97;;;22.70;99.10;;;;;;4922460;29;20035;-66
2023/07/11 06:25:31;;;;;;;5.38;3.22;;;22.70;98.80;;;;;;4922580;29;20047;-66
2023/07/11 06:27:56;;;;;;;7.82;3.13;;;22.70;98.50;;;;;;4920818;29;20036;-66
2023/07/11 06:30:22;;;;;;;4.13;2.70;;;22.80;98.20;;;;;;4919204;29;20067;-66
2023/07/11 06:32:48;;;;;;;5.47;3.13;;;22.70;98.40;;;;;;4922109;29;20143;-66
2023/07/11 06:35:14;;;;;;;3.85;2.83;;;22.90;98.50;;;;;;4926354;29;20491;-65
2023/07/11 06:37:39;;;;;;;6.50;3.20;;;22.80;98.50;;;;;;4924202;29;20573;-66
2023/07/11 06:40:08;;;;;;;4.28;2.88;;;22.70;98.40;;;;;;4924236;29;20038;-66
2023/07/11 06:42:34;;;;;;;3.08;2.78;;;22.60;98.20;;;;;;4921387;29;20043;-66
2023/07/11 06:45:00;;;;;;;4.70;3.10;;;22.50;98.30;;;;;;4921683;29;20059;-65
2023/07/11 06:47:26;;;;;;;3.65;2.80;;;22.60;98.50;;;;;;4920948;29;20519;-65
2023/07/11 06:49:52;;;;;;;4.97;2.90;;;22.60;98.20;;;;;;4910261;29;20142;-65
2023/07/11 06:52:17;;;;;;;4.40;2.70;;;22.60;97.90;;;;;;4926172;29;20130;-65
2023/07/11 06:54:43;;;;;;;4.57;2.80;;;22.70;98.30;;;;;;4924025;29;20122;-65
2023/07/11 06:57:09;;;;;;;3.88;2.50;;;22.80;97.80;;;;;;4923986;29;20142;-66
2023/07/11 06:59:35;;;;;;;4.10;2.65;;;22.90;97.20;;;;;;4921335;29;20032;-66
2023/07/11 07:02:00;;;;;;;3.88;2.30;;;23.00;97.10;;;;;;4921405;29;20681;-65
2023/07/11 07:04:26;;;;;;;2.67;2.05;;;23.10;96.80;;;;;;4918897;29;20602;-66
2023/07/11 07:06:52;;;;;;;2.83;2.40;;;23.20;97.00;;;;;;4918434;29;20875;-65
2023/07/11 07:09:20;;;;;;;4.70;2.50;;;23.30;96.70;;;;;;4926588;29;20064;-66
2023/07/11 07:11:46;;;;;;;5.38;2.90;;;23.40;95.80;;;;;;4924517;29;20382;-66
2023/07/11 07:14:12;;;;;;;2.95;2.35;;;23.40;95.00;;;;;;4924140;29;20042;-65
2023/07/11 07:16:39;;;;;;;4.30;2.47;;;23.30;95.10;;;;;;4920993;29;20032;-66
2023/07/11 07:19:07;;;;;;;3.13;2.42;;;23.40;94.30;;;;;;4922399;29;20055;-66
2023/07/11 07:21:33;;;;;;;3.35;1.83;;;23.30;94.70;;;;;;4921424;29;20032;-66
2023/07/11 07:23:59;;;;;;;3.78;2.47;;;23.30;94.30;;;;;;4919277;29;20485;-66
2023/07/11 07:26:25;;;;;;;7.22;2.38;;;23.40;94.80;;;;;;4922825;29;20043;-66
2023/07/11 07:28:51;;;;;;;5.18;2.85;;;23.50;93.80;;;;;;4924571;29;20047;-65
2023/07/11 07:31:17;;;;;;;3.13;2.20;;;23.40;93.80;;;;;;4924324;29;20040;-66
2023/07/11 07:33:43;;;;;;;2.85;2.22;;;23.40;93.60;;;;;;4922023;29;20134;-66
2023/07/11 07:36:11;;;;;;;3.42;2.05;;;23.50;93.90;;;;;;4921933;29;20032;-66
2023/07/11 07:38:38;;;;;;;3.47;2.53;;;23.70;93.70;;;;;;4918272;29;20036;-65
2023/07/11 07:41:06;;;;;;;3.53;2.40;;;23.80;93.70;;;;;;4919856;29;20851;-66
2023/07/11 07:43:33;;;;;;;4.85;1.92;;;23.90;93.30;;;;;;4919211;29;20409;-65
2023/07/11 07:46:01;;;;;;;2.08;1.67;;;24.10;92.20;;;;;;4925209;29;20050;-65
2023/07/11 07:48:27;;;;;;;3.67;1.70;;;24.10;91.10;;;;;;4922301;29;20582;-66
2023/07/11 07:51:04;;;;;;;3.50;2.00;;;24.10;90.80;;;;;;4922458;29;20035;-66
2023/07/11 07:53:31;;;;;;;3.38;2.08;;;23.90;89.70;;;;;;4920758;29;20039;-66
2023/07/11 07:56:05;;;;;;;3.72;1.58;;;23.80;91.00;;;;;;4920196;29;20043;-65
2023/07/11 07:58:32;;;;;;;8.73;1.83;;;23.80;91.20;;;;;;4917107;29;20032;-65
2023/07/11 08:00:58;;;;;;;6.78;2.25;;;23.90;89.40;;;;;;4921882;29;20244;-66
2023/07/11 08:03:23;;;;;;;3.20;1.83;;;23.90;90.00;;;;;;4925234;29;20145;-66
2023/07/11 08:05:49;;;;;;;2.83;1.42;;;23.90;88.50;;;;;;4923293;29;20043;-66
2023/07/11 08:08:15;;;;;;;2.38;1.60;;;24.00;86.00;;;;;;4923416;29;20082;-66
2023/07/11 08:10:41;;;;;;;1.92;1.52;;;24.00;87.20;;;;;;4919953;29;20139;-66
2023/07/11 08:13:07;;;;;;;4.18;2.10;;;24.10;88.20;;;;;;4921274;29;20027;-66
2023/07/11 08:15:32;;;;;;;4.18;1.85;;;24.20;88.00;;;;;;4917487;29;20130;-66
2023/07/11 08:17:58;;;;;;;5.07;1.92;;;24.30;88.50;;;;;;4918509;29;20047;-66
2023/07/11 08:20:24;;;;;;;1.83;1.48;;;24.50;85.30;;;;;;4925791;29;20040;-66
2023/07/11 08:22:50;;;;;;;4.35;1.50;;;24.70;84.70;;;;;;4923527;29;20032;-66
2023/07/11 08:25:16;;;;;;;2.42;1.40;;;24.80;83.80;;;;;;4924211;29;20039;-66
2023/07/11 08:27:41;;;;;;;3.33;1.85;;;24.80;82.00;;;;;;4923833;29;20040;-66
2023/07/11 08:30:07;;;;;;;3.35;1.58;;;24.80;81.20;;;;;;4924857;29;20059;-66
2023/07/11 08:32:34;;;;;;;2.17;1.50;;;24.70;81.50;;;;;;4921710;29;20040;-66
2023/07/11 08:35:00;;;;;;;5.15;1.63;;;24.70;81.60;;;;;;4922343;29;20101;-66
2023/07/11 08:37:26;;;;;;;6.50;2.03;;;24.90;82.30;;;;;;4926070;29;20035;-66
2023/07/11 08:39:51;;;;;;;3.15;1.70;;;25.00;80.80;;;;;;4927650;29;20101;-66
2023/07/11 08:42:40;;;;;;;3.10;1.50;;;25.00;81.60;;;;;;4926997;29;20088;-66
2023/07/11 08:45:43;;;;;;;3.47;1.50;;;25.20;81.20;;;;;;4925347;29;20386;-66
2023/07/11 08:48:24;;;;;;;3.53;1.63;;;25.40;82.40;;;;;;4923845;29;20035;-65
2023/07/11 08:50:59;;;;;;;4.25;1.85;;;25.50;81.00;;;;;;4921344;29;20088;-66
2023/07/11 08:53:31;;;;;;;2.58;1.83;;;25.40;80.10;;;;;;4919729;29;20036;-66
2023/07/11 08:56:06;;;;;;;4.75;1.90;;;25.30;80.60;;;;;;4910651;29;20043;-66
2023/07/11 08:58:36;;;;;;;4.80;2.22;;;25.20;81.10;;;;;;4925190;29;20044;-66
2023/07/11 09:01:10;;;;;;;2.67;1.98;;;25.30;80.80;;;;;;4923602;29;20031;-66
2023/07/11 09:03:44;;;;;;;5.22;1.90;;;25.40;79.60;;;;;;4922694;29;20070;-66
2023/07/11 09:06:18;;;;;;;4.15;1.50;;;25.40;80.80;;;;;;4923740;29;20032;-66
2023/07/11 09:08:46;;;;;;;4.60;1.90;;;25.40;79.70;;;;;;4920519;29;20063;-66
2023/07/11 09:11:22;;;;;;;2.63;1.63;;;25.50;79.00;;;;;;4921648;29;20597;-66
2023/07/11 09:14:14;;;;;;;4.10;2.10;;;25.60;79.20;;;;;;4927608;29;20032;-66
2023/07/11 09:16:58;;;;;;;4.53;2.05;;;25.70;77.90;;;;;;4896277;29;20111;-66
2023/07/11 09:19:49;;;;;;;4.57;1.90;;;25.70;79.00;;;;;;4923935;29;20032;-66
2023/07/11 09:22:23;;;;;;;2.92;1.60;;;25.70;78.20;;;;;;4924375;29;20039;-66
2023/07/11 09:25:00;;;;;;;2.47;1.73;;;25.80;77.70;;;;;;4921051;29;20127;-66
2023/07/11 09:27:39;;;;;;;5.32;2.15;;;25.90;77.80;;;;;;4920166;29;20368;-66
2023/07/11 09:30:16;;;;;;;3.63;1.60;;;26.00;77.00;;;;;;4921466;29;20087;-66
2023/07/11 09:32:42;;;;;;;5.80;1.85;;;25.90;75.40;;;;;;4927150;29;20039;-66
2023/07/11 09:35:28;;;;;;;2.75;1.60;;;26.00;75.40;;;;;;4926421;29;20623;-66
2023/07/11 09:38:01;;;;;;;5.80;2.05;;;26.10;76.70;;;;;;4925086;29;20160;-66
2023/07/11 09:40:58;;;;;;;2.97;1.70;;;26.20;75.20;;;;;;4922718;29;20408;-66
2023/07/11 09:43:24;;;;;;;4.13;1.63;;;26.30;77.00;;;;;;4911222;29;20071;-66
2023/07/11 09:45:50;;;;;;;4.68;1.90;;;26.30;75.20;;;;;;4919389;29;20044;-67
2023/07/11 09:48:21;;;;;;;5.22;1.92;;;26.40;74.30;;;;;;4923508;29;20046;-64
2023/07/11 09:51:05;;;;;;;3.72;1.80;;;26.30;74.50;;;;;;4900625;29;20040;-65
2023/07/11 09:53:32;;;;;;;4.13;1.65;;;26.30;74.20;;;;;;4923066;29;20047;-64
2023/07/11 09:56:09;;;;;;;4.68;2.40;;;26.30;76.30;;;;;;4923945;29;20678;-65
2023/07/11 09:58:35;;;;;;;4.72;1.80;;;26.30;74.90;;;;;;4920667;29;20036;-65
2023/07/11 10:01:07;;;;;;;2.80;1.83;;;26.40;73.70;;;;;;4921865;29;20032;-65
2023/07/11 10:03:35;;;;;;;5.20;2.20;;;26.50;76.40;;;;;;4917694;29;20043;-65
2023/07/11 10:06:03;;;;;;;4.70;2.05;;;26.60;73.80;;;;;;4927104;29;20047;-65
2023/07/11 10:08:45;;;;;;;4.07;1.77;;;26.70;74.70;;;;;;4923837;29;20118;-64
2023/07/11 10:11:13;;;;;;;3.33;1.85;;;26.80;74.00;;;;;;4923702;29;20050;-64
2023/07/11 10:13:44;;;;;;;3.65;2.00;;;26.80;71.40;;;;;;4921600;29;20047;-64
2023/07/11 10:16:17;;;;;;;2.78;1.90;;;26.60;71.40;;;;;;4923255;29;20031;-64
2023/07/11 10:18:44;;;;;;;4.28;1.70;;;26.60;71.50;;;;;;4903997;29;20039;-64
2023/07/11 10:21:17;;;;;;;3.13;1.60;;;26.50;70.20;;;;;;4919726;29;20051;-64
2023/07/11 10:23:46;;;;;;;1.80;1.60;;;26.70;71.20;;;;;;4924845;29;20491;-64
2023/07/11 10:26:23;;;;;;;3.08;1.65;;;26.90;69.60;;;;;;4925669;29;20627;-64
2023/07/11 10:28:56;;;;;;;3.55;1.90;;;27.20;70.40;;;;;;4923408;29;20048;-64
2023/07/11 10:31:46;;;;;;;5.85;1.98;;;27.20;68.70;;;;;;4922037;29;20047;-64
2023/07/11 10:34:21;;;;;;;2.42;1.38;;;27.20;69.50;;;;;;4922129;29;20042;-65
2023/07/11 10:36:52;;;;;;;4.15;1.88;;;27.30;68.80;;;;;;4920756;29;20035;-64
2023/07/11 10:39:26;;;;;;;4.82;1.80;;;27.50;69.40;;;;;;4919194;29;20058;-65
2023/07/11 10:41:58;;;;;;;6.32;1.88;;;27.70;65.50;;;;;;4925133;29;20510;-65
2023/07/11 10:44:30;;;;;;;3.67;1.55;;;27.60;64.50;;;;;;4925592;29;20084;-65
2023/07/11 10:46:56;;;;;;;3.20;1.90;;;27.30;65.60;;;;;;4923777;29;20654;-65
2023/07/11 10:49:38;;;;;;;2.75;1.50;;;27.50;66.30;;;;;;4922903;29;20288;-65
2023/07/11 10:52:16;;;;;;;5.05;2.00;;;27.70;66.20;;;;;;4920293;29;20453;-65
2023/07/11 10:55:14;;;;;;;2.88;1.33;;;27.80;64.40;;;;;;4918214;29;20112;-65
2023/07/11 10:57:52;;;;;;;6.88;1.90;;;27.60;63.80;;;;;;4900869;29;20040;-65
2023/07/11 11:00:23;;;;;;;4.70;1.80;;;27.80;64.30;;;;;;4926381;29;20656;-65
2023/07/11 11:03:08;;;;;;;3.42;1.70;;;28.00;63.60;;;;;;4924390;29;20083;-65
2023/07/11 11:06:12;;;;;;;2.65;1.50;;;27.90;62.10;;;;;;4921455;29;20527;-65
2023/07/11 11:09:08;;;;;;;2.35;1.75;;;27.70;61.60;;;;;;4873705;29;20047;-65
2023/07/11 11:11:42;;;;;;;3.58;1.80;;;27.80;62.20;;;;;;4922164;29;20031;-65
2023/07/11 11:14:20;;;;;;;3.45;1.50;;;28.00;63.50;;;;;;4920152;29;20036;-65
2023/07/11 11:17:32;;;;;;;4.82;2.00;;;27.80;62.90;;;;;;4920637;29;20126;-65
2023/07/11 11:20:49;;;;;;;4.32;1.50;;;27.90;63.90;;;;;;4923236;29;20674;-65
2023/07/11 11:23:26;;;;;;;4.38;1.95;;;27.90;61.90;;;;;;4895515;29;20860;-65
2023/07/11 11:26:29;;;;;;;6.50;2.25;;;28.00;63.20;;;;;;4926157;29;20044;-65
2023/07/11 11:29:19;;;;;;;2.97;1.70;;;28.10;61.10;;;;;;4920891;29;20457;-66
2023/07/11 11:32:01;;;;;;;3.92;1.40;;;28.20;61.90;;;;;;4918016;29;20088;-65
2023/07/11 11:34:49;;;;;;;1.75;1.30;;;28.30;62.10;;;;;;4922610;29;20409;-65
2023/07/11 11:37:30;;;;;;;2.97;1.50;;;28.40;60.10;;;;;;4923681;29;20821;-65
2023/07/11 11:40:09;;;;;;;2.67;1.50;;;28.50;57.60;;;;;;4923212;29;20036;-66
2023/07/11 11:42:38;;;;;;;3.25;1.50;;;28.70;57.40;;;;;;4920557;29;20100;-65
2023/07/11 11:45:09;;;;;;;2.63;1.65;;;28.70;59.20;;;;;;4921638;29;20032;-65
2023/07/11 11:47:37;;;;;;;3.22;1.80;;;28.70;57.70;;;;;;4921025;29;20404;-65
2023/07/11 11:50:03;;;;;;;2.88;1.70;;;28.40;59.70;;;;;;4918710;29;20107;-65
2023/07/11 11:52:33;;;;;;;2.10;1.55;;;28.50;60.30;;;;;;4922523;29;20119;-65
2023/07/11 11:54:59;;;;;;;3.20;1.48;;;28.60;58.50;;;;;;4924514;29;20095;-65
2023/07/11 11:57:30;;;;;;;3.33;1.40;;;28.60;57.00;;;;;;4923833;29;20039;-65
2023/07/11 11:59:57;;;;;;;1.52;1.38;;;28.50;56.00;;;;;;4925626;29;20093;-65
2023/07/11 12:02:37;;;;;;;3.13;1.50;;;28.60;57.70;;;;;;4924979;29;20527;-65
2023/07/11 12:05:02;;;;;;;2.47;1.55;;;28.50;57.00;;;;;;4922848;29;20392;-65
2023/07/11 12:07:39;;;;;;;2.75;1.67;;;28.50;56.20;;;;;;4920787;29;20028;-65
2023/07/11 12:10:13;;;;;;;3.05;1.60;;;28.30;55.70;;;;;;4922726;29;20087;-65
2023/07/11 12:12:38;;;;;;;3.75;1.60;;;28.20;56.70;;;;;;4927363;29;20036;-65
2023/07/11 12:15:10;;;;;;;2.80;1.77;;;28.30;58.60;;;;;;4927464;29;20035;-65
2023/07/11 12:17:36;;;;;;;2.17;1.50;;;28.40;58.60;;;;;;4924670;29;20044;-65
2023/07/11 12:20:02;;;;;;;2.47;1.48;;;28.60;56.10;;;;;;4924867;29;20055;-65
2023/07/11 12:22:30;;;;;;;3.83;1.65;;;28.70;57.60;;;;;;4921665;29;20241;-65
2023/07/11 12:25:17;;;;;;;2.90;1.63;;;28.70;56.20;;;;;;4924832;29;20032;-65
2023/07/11 12:28:00;;;;;;;3.03;1.70;;;28.80;55.30;;;;;;4928601;29;20046;-65
2023/07/11 12:30:44;;;;;;;4.05;2.03;;;28.70;57.30;;;;;;4917754;29;20468;-65
2023/07/11 12:33:33;;;;;;;2.80;1.67;;;28.80;56.80;;;;;;4920824;29;20058;-65
2023/07/11 12:36:12;;;;;;;4.72;1.90;;;28.80;56.70;;;;;;4919366;29;20036;-65
2023/07/11 12:38:53;;;;;;;2.92;1.80;;;29.00;55.90;;;;;;4922001;29;20043;-65
2023/07/11 12:41:43;;;;;;;4.20;1.63;;;29.00;55.70;;;;;;4923487;29;20054;-65
2023/07/11 12:44:16;;;;;;;2.58;1.70;;;28.90;55.10;;;;;;4924087;29;20158;-65
2023/07/11 12:46:45;;;;;;;4.47;1.83;;;28.90;54.60;;;;;;4917506;29;20063;-65
2023/07/11 12:49:28;;;;;;;2.50;1.98;;;28.90;56.20;;;;;;4917613;29;20604;-65
2023/07/11 12:52:08;;;;;;;3.20;1.85;;;29.20;55.70;;;;;;4914611;29;20685;-64
2023/07/11 12:54:34;;;;;;;8.23;1.88;;;29.10;54.80;;;;;;4917449;29;20449;-64
2023/07/11 12:57:00;;;;;;;3.28;1.77;;;29.20;54.20;;;;;;4924018;29;20062;-65
2023/07/11 12:59:28;;;;;;;3.47;1.83;;;29.20;53.70;;;;;;4922063;29;20119;-65
2023/07/11 13:01:58;;;;;;;2.42;1.70;;;29.10;54.60;;;;;;4923903;29;20032;-65
2023/07/11 13:04:44;;;;;;;4.13;1.98;;;29.20;53.60;;;;;;4922540;29;20412;-65